Terminal Aerodrome Forecast
Issued by NWS

Home | Current Version | Previous Version | Text Only | Print | Product List | Glossary On
Versions: 1 2 3 4 5 6 7 8 9 10 11 12 13 14 15 16 17 18 19 20 21 22 23 24
000
FTUS45 KGJT 251732
TAFEGE
TAF
KEGE 251732Z 2518/2618 VRB03KT P6SM SCT060
     FM251900 24009KT P6SM BKN060
     FM252100 25012KT P6SM VCSH OVC035
     FM260000 25008KT P6SM VCSH OVC030
     FM260400 10004KT P6SM VCSH BKN045
     FM260600 VRB03KT P6SM OVC060=

USA.gov is the U.S. government's official web portal to all federal, state and local government web resources and services.